Other Surface Observations
Issued by NWS Great Falls, MT

Home | Current Version | Previous Version | Graphics & Text | Print | Product List | Glossary On
Versions: 1 2 3 4 5 6 7 8 9 10 11 12 13 14 15 16 17 18 19 20 21 22 23 24 25 26 27 28 29 30 31 32 33 34 35 36 37 38 39 40 41 42 43 44 45 46 47 48 49 50
000
SXUS55 KTFX 240314
OSOTFX
AREA AWOS OBSERVATIONS
NATIONAL WEATHER SERVICE GREAT FALLS MT
0814 PM MST THU FEB 23 2017

METAR KPWD 240315Z AUTO 00000KT 9SM M04/M09 A3012 RMK PLENTYWOOD
METAR KPO1 240315Z AUTO 06006KT 10SM M04/M07 A3015 RMK POPLAR
METAR K1S3 240315Z AUTO 05005KT 3SM M02/M02 A3005 RMK FORSYTH
METAR KS71 240315Z AUTO 10006KT 10SM M02/M05 A3007 RMK CHINOOK
METAR K79S 240315Z AUTO 10SM M02/M04 A3003 RMK FORT BENTON
METAR K38S 240315Z AUTO 34006KT 10SM M04/M09 A2991 RMK DEER LODGE
METAR K3U3 240315Z AUTO 32008KT 10SM M05/M10 A2987 RMK ANACONDA
METAR K6S5 240315Z AUTO 34009KT 10SM M01/M06 A2992 RMK HAMILTON
METAR KS59 240315Z AUTO 15003KT 10SM M03/M07 A2999 RMK LIBBY
METAR K88M 240315Z AUTO 00000KT 10SM M04/M08 A2999 RMK EUREKA



USA.gov is the U.S. government's official web portal to all federal, state and local government web resources and services.